createdAt,value
2019-01-21T00:00:55.710Z,95.94
2019-01-21T00:01:55.695Z,96.15
2019-01-21T00:02:55.713Z,95.41
2019-01-21T00:03:55.686Z,95.51
2019-01-21T00:04:55.668Z,96.25
2019-01-21T00:05:55.651Z,95.51
2019-01-21T00:06:55.643Z,96.04
2019-01-21T00:07:55.659Z,96.04
2019-01-21T00:08:55.619Z,95.51
2019-01-21T00:09:55.616Z,95.51
2019-01-21T00:10:55.629Z,95.83
2019-01-21T00:11:55.612Z,95.73
2019-01-21T00:12:55.595Z,95.62
2019-01-21T00:13:55.572Z,95.98
2019-01-21T00:14:55.559Z,95.87
2019-01-21T00:15:55.547Z,95.87
2019-01-21T00:16:55.557Z,95.24
2019-01-21T00:17:55.556Z,95.77
2019-01-21T00:18:55.528Z,96.09
2019-01-21T00:19:55.511Z,95.98
2019-01-21T00:20:55.495Z,95.98
2019-01-21T00:21:55.486Z,95.98
2019-01-21T00:22:55.513Z,96.09
2019-01-21T00:23:55.499Z,96.19
2019-01-21T00:24:55.464Z,96.09
2019-01-21T00:25:55.452Z,95.98
2019-01-21T00:26:55.451Z,96.09
2019-01-21T00:27:55.433Z,95.98
2019-01-21T00:28:55.449Z,96.19
2019-01-21T00:29:55.406Z,95.87
2019-01-21T00:30:55.396Z,96.09
2019-01-21T00:31:55.390Z,96.09
2019-01-21T00:32:55.402Z,96.09
2019-01-21T00:33:55.376Z,96.09
2019-01-21T00:34:55.386Z,96.19
2019-01-21T00:35:55.349Z,96.09
2019-01-21T00:36:55.338Z,96.41
2019-01-21T00:37:55.332Z,96.36
2019-01-21T00:38:55.326Z,96.19
2019-01-21T00:39:55.307Z,96.30
2019-01-21T00:40:55.333Z,96.36
2019-01-21T00:41:55.289Z,96.25
2019-01-21T00:42:55.271Z,96.15
2019-01-21T00:43:55.267Z,96.19
2019-01-21T00:44:55.265Z,95.83
2019-01-21T00:45:55.255Z,96.09
2019-01-21T00:46:55.275Z,96.19
2019-01-21T00:47:55.222Z,96.19
2019-01-21T00:48:55.212Z,96.09
2019-01-21T00:49:55.203Z,96.19
2019-01-21T00:50:55.195Z,96.09
2019-01-21T00:51:55.180Z,96.19
2019-01-21T00:52:55.196Z,96.09
2019-01-21T00:53:55.167Z,96.19
2019-01-21T00:54:55.152Z,96.19
2019-01-21T00:55:55.143Z,96.15
2019-01-21T00:56:55.131Z,96.25
2019-01-21T00:57:55.130Z,96.25
2019-01-21T00:58:55.134Z,96.25
2019-01-21T00:59:55.105Z,96.36
2019-01-21T01:00:55.095Z,96.25
2019-01-21T01:01:55.080Z,96.25
2019-01-21T01:02:55.083Z,96.36
2019-01-21T01:03:55.081Z,96.25
2019-01-21T01:04:55.058Z,96.25
2019-01-21T01:05:55.039Z,96.25
2019-01-21T01:06:55.032Z,96.25
2019-01-21T01:07:55.020Z,95.73
2019-01-21T01:08:55.050Z,96.15
2019-01-21T01:09:55.012Z,96.04
2019-01-21T01:10:54.992Z,96.25
2019-01-21T01:11:54.978Z,95.94
2019-01-21T01:12:54.971Z,95.62
2019-01-21T01:13:54.959Z,96.15
2019-01-21T01:14:54.971Z,95.83
2019-01-21T01:15:54.946Z,96.25
2019-01-21T01:16:54.930Z,96.25
2019-01-21T01:17:54.921Z,95.94
2019-01-21T01:18:54.929Z,96.15
2019-01-21T01:19:54.901Z,96.25
2019-01-21T01:20:54.887Z,96.36
2019-01-21T01:21:54.889Z,95.83
2019-01-21T01:22:54.873Z,96.04
2019-01-21T01:23:54.860Z,95.83
2019-01-21T01:24:54.864Z,96.15
2019-01-21T01:25:54.837Z,96.04
2019-01-21T01:26:54.872Z,95.94
2019-01-21T01:27:54.820Z,95.94
2019-01-21T01:28:54.821Z,95.94
2019-01-21T01:29:54.828Z,96.15
2019-01-21T01:30:54.789Z,96.15
2019-01-21T01:31:54.791Z,95.73
2019-01-21T01:32:54.767Z,96.47
2019-01-21T01:33:54.759Z,96.04
2019-01-21T01:34:54.761Z,96.47
2019-01-21T01:35:54.728Z,96.57
2019-01-21T01:36:54.726Z,96.36
2019-01-21T01:37:54.746Z,96.25
2019-01-21T01:38:54.711Z,95.62
2019-01-21T01:39:54.778Z,95.73
2019-01-21T01:40:54.696Z,96.15
2019-01-21T01:41:54.667Z,96.25
2019-01-21T01:42:54.667Z,96.15
2019-01-21T01:43:54.658Z,96.25
2019-01-21T01:44:54.655Z,96.25
2019-01-21T01:45:54.638Z,96.15
2019-01-21T01:46:54.631Z,96.15
2019-01-21T01:47:54.610Z,96.15
2019-01-21T01:48:54.605Z,96.15
2019-01-21T01:49:54.612Z,95.94
2019-01-21T01:50:54.574Z,96.04
2019-01-21T01:51:54.570Z,96.04
2019-01-21T01:52:54.581Z,96.15
2019-01-21T01:53:54.546Z,96.15
2019-01-21T01:54:54.559Z,95.83
2019-01-21T01:55:54.532Z,96.25
2019-01-21T01:56:54.518Z,95.83
2019-01-21T01:57:54.505Z,95.73
2019-01-21T01:58:54.515Z,95.83
2019-01-21T01:59:54.484Z,96.04
2019-01-21T02:00:54.504Z,96.04
2019-01-21T02:01:54.468Z,95.94
2019-01-21T02:02:54.459Z,96.15
2019-01-21T02:03:54.442Z,95.94
2019-01-21T02:04:54.458Z,96.09
2019-01-21T02:05:54.432Z,96.04
2019-01-21T02:06:54.439Z,96.25
2019-01-21T02:07:54.409Z,96.04
2019-01-21T02:08:54.389Z,96.15
2019-01-21T02:09:54.380Z,96.15
2019-01-21T02:10:54.371Z,96.15
2019-01-21T02:11:54.401Z,96.04
2019-01-21T02:12:54.368Z,95.94
2019-01-21T02:13:54.342Z,95.41
2019-01-21T02:14:54.335Z,96.25
2019-01-21T02:15:54.320Z,96.15
2019-01-21T02:16:54.315Z,96.30
2019-01-21T02:17:54.334Z,95.24
2019-01-21T02:18:54.303Z,95.77
2019-01-21T02:19:54.284Z,95.56
2019-01-21T02:20:54.269Z,95.77
2019-01-21T02:21:54.265Z,95.67
2019-01-21T02:22:54.248Z,95.77
2019-01-21T02:23:54.276Z,95.77
2019-01-21T02:24:54.232Z,95.77
2019-01-21T02:25:54.237Z,95.45
2019-01-21T02:26:54.216Z,96.41
2019-01-21T02:27:54.200Z,96.30
2019-01-21T02:28:54.219Z,95.87
2019-01-21T02:29:54.224Z,95.35
2019-01-21T02:30:54.165Z,95.56
2019-01-21T02:31:54.172Z,95.67
2019-01-21T02:32:54.151Z,96.19
2019-01-21T02:33:54.139Z,96.30
2019-01-21T02:34:54.129Z,95.56
2019-01-21T02:35:54.151Z,96.30
2019-01-21T02:36:54.115Z,95.35
2019-01-21T02:37:54.100Z,95.35
2019-01-21T02:38:54.092Z,96.23
2019-01-21T02:39:54.080Z,96.23
2019-01-21T02:40:54.072Z,95.35
2019-01-21T02:41:54.089Z,96.23
2019-01-21T02:42:54.053Z,96.34
2019-01-21T02:43:54.044Z,96.23
2019-01-21T02:44:54.028Z,95.71
2019-01-21T02:45:54.023Z,95.71
2019-01-21T02:46:54.008Z,95.92
2019-01-21T02:48:00.018Z,95.71
2019-01-21T02:48:54.993Z,95.92
2019-01-21T02:49:53.987Z,95.71
2019-01-21T02:50:53.965Z,96.03
2019-01-21T02:51:53.954Z,95.86
2019-01-21T02:52:53.969Z,95.71
2019-01-21T02:53:53.939Z,95.96
2019-01-21T02:54:53.925Z,95.86
2019-01-21T02:55:53.925Z,95.71
2019-01-21T02:56:53.925Z,95.81
2019-01-21T02:57:53.896Z,95.81
2019-01-21T02:58:53.934Z,95.33
2019-01-21T02:59:53.890Z,95.60
2019-01-21T03:00:53.864Z,95.96
2019-01-21T03:01:53.856Z,95.64
2019-01-21T03:02:53.847Z,95.86
2019-01-21T03:03:53.841Z,95.96
2019-01-21T03:04:53.846Z,95.86
2019-01-21T03:05:53.821Z,95.86
2019-01-21T03:06:53.803Z,95.75
2019-01-21T03:07:53.793Z,95.86
2019-01-21T03:08:53.786Z,95.81
2019-01-21T03:09:53.775Z,95.75
2019-01-21T03:10:53.790Z,95.64
2019-01-21T03:11:53.758Z,96.39
2019-01-21T03:12:53.743Z,95.86
2019-01-21T03:13:53.733Z,95.58
2019-01-21T03:14:53.723Z,95.75
2019-01-21T03:15:53.743Z,95.64
2019-01-21T03:16:53.701Z,95.75
2019-01-21T03:17:53.689Z,96.17
2019-01-21T03:18:53.685Z,96.17
2019-01-21T03:19:53.668Z,95.96
2019-01-21T03:20:53.666Z,96.17
2019-01-21T03:21:53.666Z,96.22
2019-01-21T03:22:53.661Z,96.17
2019-01-21T03:23:53.632Z,95.96
2019-01-21T03:24:53.626Z,96.32
2019-01-21T03:25:53.609Z,96.43
2019-01-21T03:26:53.633Z,96.22
2019-01-21T03:27:53.599Z,95.79
2019-01-21T03:28:53.605Z,95.79
2019-01-21T03:29:53.564Z,95.90
2019-01-21T03:30:53.559Z,96.00
2019-01-21T03:31:53.567Z,96.11
2019-01-21T03:32:53.684Z,95.90
2019-01-21T03:33:53.527Z,95.79
2019-01-21T03:34:53.516Z,95.69
2019-01-21T03:35:53.517Z,95.69
2019-01-21T03:36:53.509Z,96.43
2019-01-21T03:37:53.507Z,96.43
2019-01-21T03:38:53.512Z,95.79
2019-01-21T03:39:53.473Z,96.32
2019-01-21T03:40:53.462Z,95.69
2019-01-21T03:41:53.452Z,95.69
2019-01-21T03:42:53.437Z,96.00
2019-01-21T03:43:53.422Z,95.84
2019-01-21T03:44:53.439Z,95.94
2019-01-21T03:45:53.427Z,95.73
2019-01-21T03:46:53.405Z,95.79
2019-01-21T03:47:53.386Z,95.62
2019-01-21T03:48:53.379Z,95.52
2019-01-21T03:49:53.389Z,95.73
2019-01-21T03:50:53.353Z,95.73
2019-01-21T03:51:53.353Z,96.22
2019-01-21T03:52:53.346Z,96.22
2019-01-21T03:53:53.330Z,96.26
2019-01-21T03:54:53.319Z,96.22
2019-01-21T03:55:53.327Z,96.00
2019-01-21T03:56:53.298Z,96.43
2019-01-21T03:57:53.291Z,96.26
2019-01-21T03:58:53.277Z,96.26
2019-01-21T03:59:53.266Z,96.15
2019-01-21T04:00:53.275Z,96.37
2019-01-21T04:01:53.250Z,96.15
2019-01-21T04:02:53.232Z,96.58
2019-01-21T04:03:53.228Z,96.37
2019-01-21T04:04:53.210Z,96.26
2019-01-21T04:05:53.223Z,96.37
2019-01-21T04:06:53.200Z,96.26
2019-01-21T04:07:53.188Z,96.22
2019-01-21T04:08:53.177Z,96.26
2019-01-21T04:09:53.179Z,96.26
2019-01-21T04:10:53.195Z,96.05
2019-01-21T04:11:53.141Z,96.26
2019-01-21T04:12:53.128Z,96.26
2019-01-21T04:13:53.124Z,96.26
2019-01-21T04:14:53.116Z,96.26
2019-01-21T04:15:53.114Z,96.37
2019-01-21T04:16:53.136Z,96.26
2019-01-21T04:17:53.085Z,96.26
2019-01-21T04:18:53.076Z,96.15
2019-01-21T04:19:53.065Z,96.26
2019-01-21T04:20:53.070Z,96.37
2019-01-21T04:21:53.037Z,95.62
2019-01-21T04:22:53.058Z,95.73
2019-01-21T04:23:53.026Z,95.94
2019-01-21T04:24:53.015Z,95.73
2019-01-21T04:25:54.534Z,95.52
2019-01-21T04:26:52.987Z,95.84
2019-01-21T04:27:53.008Z,96.41
2019-01-21T04:28:52.998Z,96.41
2019-01-21T04:29:52.962Z,96.37
2019-01-21T04:30:52.953Z,95.67
2019-01-21T04:31:52.935Z,95.35
2019-01-21T04:32:52.931Z,95.94
2019-01-21T04:33:52.945Z,95.78
2019-01-21T04:34:52.930Z,96.51
2019-01-21T04:35:52.900Z,95.35
2019-01-21T04:36:52.884Z,95.46
2019-01-21T04:37:52.886Z,95.62
2019-01-21T04:38:52.867Z,95.52
2019-01-21T04:39:52.886Z,95.84
2019-01-21T04:40:52.856Z,95.78
2019-01-21T04:41:52.856Z,95.98
2019-01-21T04:42:52.824Z,95.98
2019-01-21T04:43:52.817Z,95.88
2019-01-21T04:44:52.810Z,96.09
2019-01-21T04:45:52.838Z,95.98
2019-01-21T04:46:52.791Z,95.88
2019-01-21T04:47:52.782Z,95.88
2019-01-21T04:48:52.777Z,95.88
2019-01-21T04:49:52.763Z,95.88
2019-01-21T04:50:52.750Z,95.88
2019-01-21T04:51:52.752Z,95.88
2019-01-21T04:52:52.737Z,95.98
2019-01-21T04:53:52.727Z,95.98
2019-01-21T04:54:52.706Z,95.88
2019-01-21T04:55:52.701Z,96.09
2019-01-21T04:56:52.712Z,96.09
2019-01-21T04:57:52.685Z,95.98
2019-01-21T04:58:52.674Z,95.88
2019-01-21T04:59:52.654Z,95.88
2019-01-21T05:00:52.649Z,95.46
2019-01-21T05:01:52.641Z,95.88
2019-01-21T05:02:52.663Z,95.46
2019-01-21T05:03:52.621Z,96.30
2019-01-21T05:04:52.607Z,96.62
2019-01-21T05:05:52.596Z,95.88
2019-01-21T05:06:52.593Z,95.78
2019-01-21T05:07:52.586Z,95.98
2019-01-21T05:08:52.596Z,95.98
2019-01-21T05:09:52.569Z,95.82
2019-01-21T05:10:52.565Z,95.78
2019-01-21T05:11:52.534Z,95.82
2019-01-21T05:12:52.530Z,95.98
2019-01-21T05:13:52.541Z,95.92
2019-01-21T05:14:52.506Z,95.88
2019-01-21T05:15:52.511Z,96.03
2019-01-21T05:16:52.508Z,95.88
2019-01-21T05:17:52.477Z,96.14
2019-01-21T05:18:52.466Z,95.88
2019-01-21T05:19:52.493Z,95.88
2019-01-21T05:20:52.440Z,95.88
2019-01-21T05:21:52.440Z,95.98
2019-01-21T05:22:52.420Z,95.98
2019-01-21T05:23:52.440Z,96.03
2019-01-21T05:24:52.403Z,96.09
2019-01-21T05:25:52.422Z,96.03
2019-01-21T05:26:52.384Z,95.98
2019-01-21T05:27:52.370Z,96.09
2019-01-21T05:28:52.367Z,96.09
2019-01-21T05:29:52.351Z,96.14
2019-01-21T05:30:52.394Z,95.98
2019-01-21T05:31:52.357Z,95.98
2019-01-21T05:32:52.319Z,95.98
2019-01-21T05:33:52.325Z,95.98
2019-01-21T05:34:52.298Z,95.71
2019-01-21T05:35:52.288Z,96.34
2019-01-21T05:36:52.312Z,95.71
2019-01-21T05:37:52.276Z,95.18
2019-01-21T05:38:52.265Z,95.07
2019-01-21T05:39:52.261Z,95.29
2019-01-21T05:40:52.251Z,94.87
2019-01-21T05:41:52.229Z,95.07
2019-01-21T05:42:52.253Z,95.18
2019-01-21T05:43:52.226Z,95.07
2019-01-21T05:44:52.201Z,94.76
2019-01-21T05:45:52.194Z,95.07
2019-01-21T05:46:52.185Z,94.97
2019-01-21T05:47:52.196Z,94.55
2019-01-21T05:48:52.180Z,94.76
2019-01-21T05:49:52.151Z,94.34
2019-01-21T05:50:52.157Z,94.59
2019-01-21T05:51:52.148Z,94.48
2019-01-21T05:52:52.143Z,95.23
2019-01-21T05:53:52.135Z,94.76
2019-01-21T05:54:52.100Z,94.81
2019-01-21T05:55:52.096Z,94.27
2019-01-21T05:56:52.081Z,94.34
2019-01-21T05:57:52.066Z,94.81
2019-01-21T05:58:52.062Z,94.59
2019-01-21T05:59:52.069Z,95.12
2019-01-21T06:00:52.037Z,94.38
2019-01-21T06:01:52.031Z,94.48
2019-01-21T06:02:52.038Z,94.27
2019-01-21T06:03:52.013Z,94.59
2019-01-21T06:04:52.001Z,94.38
2019-01-21T06:05:52.020Z,94.70
2019-01-21T06:06:51.982Z,94.59
2019-01-21T06:07:51.964Z,94.59
2019-01-21T06:08:51.959Z,94.70
2019-01-21T06:09:51.946Z,94.38
2019-01-21T06:10:51.972Z,94.70
2019-01-21T06:11:51.938Z,94.70
2019-01-21T06:12:51.927Z,94.48
2019-01-21T06:13:51.912Z,94.48
2019-01-21T06:14:51.912Z,94.59
2019-01-21T06:15:51.909Z,94.48
2019-01-21T06:16:51.921Z,94.59
2019-01-21T06:17:51.862Z,94.59
2019-01-21T06:18:57.113Z,94.48
2019-01-21T06:19:52.854Z,94.59
2019-01-21T06:20:51.843Z,94.38
2019-01-21T06:21:51.838Z,94.81
2019-01-21T06:22:51.838Z,94.91
2019-01-21T06:23:51.816Z,94.81
2019-01-21T06:24:51.812Z,95.01
2019-01-21T06:25:51.792Z,95.23
2019-01-21T06:26:51.779Z,95.12
2019-01-21T06:27:51.791Z,95.01
2019-01-21T06:28:51.809Z,95.33
2019-01-21T06:29:51.748Z,95.12
2019-01-21T06:30:51.737Z,95.12
2019-01-21T06:31:51.734Z,95.01
2019-01-21T06:32:51.722Z,94.70
2019-01-21T06:33:51.735Z,94.17
2019-01-21T06:34:51.694Z,94.27
2019-01-21T06:35:51.684Z,94.70
2019-01-21T06:36:51.690Z,94.17
2019-01-21T06:37:51.681Z,93.74
2019-01-21T06:38:51.660Z,93.53
2019-01-21T06:39:51.674Z,94.70
2019-01-21T06:40:51.640Z,94.55
2019-01-21T06:41:51.625Z,94.48
2019-01-21T06:42:51.614Z,93.74
2019-01-21T06:43:51.604Z,93.01
2019-01-21T06:44:51.624Z,93.11
2019-01-21T06:45:51.590Z,92.69
2019-01-21T06:46:51.576Z,92.47
2019-01-21T06:47:51.560Z,92.90
2019-01-21T06:48:51.557Z,93.28
2019-01-21T06:49:51.550Z,92.90
2019-01-21T06:50:51.558Z,93.21
2019-01-21T06:51:51.530Z,93.18
2019-01-21T06:52:51.539Z,93.11
2019-01-21T06:53:51.512Z,92.79
2019-01-21T06:54:51.519Z,92.79
2019-01-21T06:55:51.491Z,92.16
2019-01-21T06:56:51.498Z,92.37
2019-01-21T06:57:51.467Z,92.16
2019-01-21T06:58:51.458Z,92.26
2019-01-21T06:59:51.497Z,92.79
2019-01-21T07:00:51.441Z,93.11
2019-01-21T07:01:51.451Z,92.47
2019-01-21T07:02:51.416Z,92.58
2019-01-21T07:03:51.408Z,93.32
2019-01-21T07:04:51.418Z,93.32
2019-01-21T07:05:51.433Z,93.21
2019-01-21T07:07:51.413Z,91.84
2019-01-21T07:08:51.389Z,91.94
2019-01-21T07:09:51.345Z,92.41
2019-01-21T07:10:51.332Z,92.30
2019-01-21T07:11:51.329Z,92.52
2019-01-21T07:12:51.306Z,92.94
2019-01-21T07:13:51.343Z,92.90
2019-01-21T07:14:51.300Z,92.52
2019-01-21T07:15:51.288Z,92.41
2019-01-21T07:16:51.282Z,92.10
2019-01-21T07:17:51.266Z,91.88
2019-01-21T07:18:51.279Z,91.88
2019-01-21T07:19:51.242Z,92.20
2019-01-21T07:20:51.238Z,92.62
2019-01-21T07:21:51.235Z,92.41
2019-01-21T07:22:51.222Z,92.30
2019-01-21T07:23:51.214Z,92.41
2019-01-21T07:24:51.217Z,92.20
2019-01-21T07:25:51.174Z,92.20
2019-01-21T07:26:51.179Z,92.45
2019-01-21T07:27:51.182Z,92.45
2019-01-21T07:28:51.155Z,92.88
2019-01-21T07:29:51.162Z,93.09
2019-01-21T07:30:51.135Z,92.94
2019-01-21T07:31:51.119Z,92.94
2019-01-21T07:32:51.136Z,93.15
2019-01-21T07:33:51.103Z,92.83
2019-01-21T07:34:51.153Z,92.94
2019-01-21T07:35:51.093Z,92.52
2019-01-21T07:36:51.065Z,93.05
2019-01-21T07:37:51.081Z,92.73
2019-01-21T07:38:51.061Z,92.94
2019-01-21T07:39:51.071Z,92.41
2019-01-21T07:40:51.126Z,93.15
2019-01-21T07:41:51.015Z,93.05
2019-01-21T07:42:51.006Z,92.52
2019-01-21T07:43:51.005Z,92.94
2019-01-21T07:44:50.985Z,92.94
2019-01-21T07:45:51.007Z,92.52
2019-01-21T07:46:50.977Z,92.83
2019-01-21T07:47:50.963Z,92.73
2019-01-21T07:48:50.948Z,93.05
2019-01-21T07:49:50.938Z,93.15
2019-01-21T07:50:50.969Z,93.26
2019-01-21T07:51:50.929Z,93.15
2019-01-21T07:52:50.910Z,93.15
2019-01-21T07:53:50.892Z,92.90
2019-01-21T07:54:50.885Z,93.11
2019-01-21T07:55:50.890Z,93.05
2019-01-21T07:56:50.893Z,92.52
2019-01-21T07:57:50.863Z,92.41
2019-01-21T07:58:50.847Z,92.79
2019-01-21T07:59:50.838Z,92.79
2019-01-21T08:00:50.823Z,92.90
2019-01-21T08:01:50.839Z,92.94
2019-01-21T08:02:50.822Z,92.90
2019-01-21T08:03:50.810Z,92.62
2019-01-21T08:04:50.795Z,92.47
2019-01-21T08:05:50.795Z,92.79
2019-01-21T08:06:50.778Z,92.90
2019-01-21T08:07:50.792Z,93.11
2019-01-21T08:08:50.750Z,93.01
2019-01-21T08:09:50.736Z,93.18
2019-01-21T08:10:50.731Z,92.96
2019-01-21T08:11:50.716Z,93.28
2019-01-21T08:12:50.704Z,92.96
2019-01-21T08:13:50.736Z,92.86
2019-01-21T08:14:50.697Z,93.07
2019-01-21T08:15:50.680Z,92.75
2019-01-21T08:16:50.687Z,92.75
2019-01-21T08:17:50.686Z,92.33
2019-01-21T08:18:50.646Z,92.43
2019-01-21T08:19:50.660Z,92.75
2019-01-21T08:20:50.626Z,92.75
2019-01-21T08:21:50.631Z,93.07
2019-01-21T08:22:50.632Z,93.02
2019-01-21T08:23:50.637Z,93.13
2019-01-21T08:24:50.578Z,93.13
2019-01-21T08:25:50.618Z,93.13
2019-01-21T08:26:50.558Z,92.82
2019-01-21T08:27:50.550Z,92.71
2019-01-21T08:28:50.575Z,92.50
2019-01-21T08:29:50.539Z,92.39
2019-01-21T08:30:50.538Z,92.71
2019-01-21T08:31:50.530Z,92.82
2019-01-21T08:32:50.503Z,93.24
2019-01-21T08:33:50.501Z,93.24
2019-01-21T08:34:50.487Z,92.60
2019-01-21T08:35:50.471Z,92.29
2019-01-21T08:36:50.482Z,93.24
2019-01-21T08:37:50.466Z,92.39
2019-01-21T08:38:50.438Z,92.92
2019-01-21T08:39:50.439Z,92.71
2019-01-21T08:40:50.425Z,92.50
2019-01-21T08:41:50.440Z,92.39
2019-01-21T08:42:50.396Z,92.24
2019-01-21T08:43:50.389Z,92.14
2019-01-21T08:44:50.383Z,92.35
2019-01-21T08:45:50.378Z,91.82
2019-01-21T08:46:50.360Z,91.72
2019-01-21T08:47:50.392Z,91.72
2019-01-21T08:48:50.348Z,91.82
2019-01-21T08:49:50.336Z,91.82
2019-01-21T08:50:50.321Z,91.61
2019-01-21T08:51:50.309Z,91.40
2019-01-21T08:52:50.301Z,92.03
2019-01-21T08:53:50.333Z,91.93
2019-01-21T08:54:50.284Z,91.72
2019-01-21T08:55:50.266Z,91.72
2019-01-21T08:56:50.261Z,92.03
2019-01-21T08:57:50.245Z,92.03
2019-01-21T08:58:50.240Z,92.24
2019-01-21T08:59:50.273Z,91.82
2019-01-21T09:00:50.216Z,92.03
2019-01-21T09:01:50.205Z,91.72
2019-01-21T09:02:50.200Z,91.67
2019-01-21T09:03:50.193Z,92.03
2019-01-21T09:04:50.182Z,91.72
2019-01-21T09:05:50.196Z,91.78
2019-01-21T09:06:50.184Z,91.78
2019-01-21T09:07:50.148Z,91.67
2019-01-21T09:08:50.144Z,91.25
2019-01-21T09:09:50.138Z,91.99
2019-01-21T09:10:50.120Z,91.74
2019-01-21T09:11:50.125Z,91.11
2019-01-21T09:12:50.099Z,91.11
2019-01-21T09:13:50.094Z,91.21
2019-01-21T09:14:50.115Z,91.00
2019-01-21T09:15:50.071Z,91.21
2019-01-21T09:16:50.081Z,91.42
2019-01-21T09:17:50.049Z,91.11
2019-01-21T09:18:50.030Z,91.00
2019-01-21T09:19:50.070Z,90.79
2019-01-21T09:20:50.022Z,90.26
2019-01-21T09:21:50.020Z,90.26
2019-01-21T09:22:50.026Z,90.37
2019-01-21T09:23:49.988Z,90.47
2019-01-21T09:24:49.983Z,90.69
2019-01-21T09:25:49.961Z,90.26
2019-01-21T09:26:49.958Z,90.79
2019-01-21T09:27:49.978Z,90.64
2019-01-21T09:28:49.935Z,90.69
2019-01-21T09:29:49.929Z,90.69
2019-01-21T09:30:49.917Z,90.75
2019-01-21T09:31:49.905Z,90.79
2019-01-21T09:32:49.898Z,90.33
2019-01-21T09:33:49.906Z,90.33
2019-01-21T09:34:49.876Z,90.33
2019-01-21T09:35:49.870Z,90.22
2019-01-21T09:36:49.852Z,90.33
2019-01-21T09:37:49.846Z,90.43
2019-01-21T09:38:49.859Z,90.28
2019-01-21T09:39:49.836Z,90.08
2019-01-21T09:40:49.815Z,89.86
2019-01-21T09:41:49.805Z,90.18
2019-01-21T09:42:49.808Z,90.28
2019-01-21T09:43:49.826Z,90.28
2019-01-21T09:44:49.779Z,90.70
2019-01-21T09:45:49.792Z,90.18
2019-01-21T09:46:49.752Z,90.50
2019-01-21T09:47:49.742Z,90.50
2019-01-21T09:48:49.734Z,90.08
2019-01-21T09:49:49.748Z,89.97
2019-01-21T09:50:49.712Z,89.76
2019-01-21T09:51:49.725Z,89.76
2019-01-21T09:52:49.689Z,89.82
2019-01-21T09:53:49.693Z,89.61
2019-01-21T09:54:49.752Z,89.72
2019-01-21T09:55:49.658Z,89.19
2019-01-21T09:56:49.649Z,89.72
2019-01-21T09:57:49.652Z,89.72
2019-01-21T09:58:49.635Z,89.61
2019-01-21T09:59:49.641Z,90.25
2019-01-21T10:00:49.610Z,89.93
2019-01-21T10:01:49.595Z,89.61
2019-01-21T10:02:49.587Z,88.87
2019-01-21T10:03:49.587Z,89.09
2019-01-21T10:04:49.594Z,89.09
2019-01-21T10:05:49.556Z,88.94
2019-01-21T10:06:49.543Z,88.98
2019-01-21T10:07:49.554Z,88.56
2019-01-21T10:08:49.527Z,89.04
2019-01-21T10:09:55.189Z,88.73
2019-01-21T10:10:50.534Z,89.04
2019-01-21T10:11:49.509Z,88.83
2019-01-21T10:12:49.483Z,88.52
2019-01-21T10:13:49.476Z,88.62
2019-01-21T10:14:49.466Z,88.41
2019-01-21T10:15:49.478Z,88.62
2019-01-21T10:16:49.454Z,88.48
2019-01-21T10:17:49.454Z,89.22
2019-01-21T10:18:49.425Z,89.00
2019-01-21T10:19:50.737Z,89.74
2019-01-21T10:20:49.836Z,89.95
2019-01-21T10:21:49.417Z,89.84
2019-01-21T10:22:49.392Z,89.22
2019-01-21T10:23:49.385Z,89.32
2019-01-21T10:24:49.365Z,89.22
2019-01-21T10:25:49.357Z,88.79
2019-01-21T10:26:49.466Z,89.00
2019-01-21T10:27:49.550Z,89.53
2019-01-21T10:28:49.344Z,89.53
2019-01-21T10:29:49.326Z,89.22
2019-01-21T10:30:49.304Z,89.22
2019-01-21T10:31:49.296Z,88.79
2019-01-21T10:32:49.294Z,89.42
2019-01-21T10:33:49.271Z,89.42
2019-01-21T10:34:49.259Z,88.90
2019-01-21T10:35:49.276Z,88.27
2019-01-21T10:36:49.239Z,88.37
2019-01-21T10:37:49.258Z,88.48
2019-01-21T10:38:49.224Z,88.48
2019-01-21T10:39:49.246Z,88.48
2019-01-21T10:40:49.212Z,87.49
2019-01-21T10:41:49.191Z,88.33
2019-01-21T10:42:49.230Z,88.44
2019-01-21T10:43:49.164Z,87.91
2019-01-21T10:44:49.168Z,88.44
2019-01-21T10:45:49.154Z,88.44
2019-01-21T10:46:49.136Z,89.81
2019-01-21T10:47:49.130Z,90.80
2019-01-21T10:48:49.131Z,91.17
2019-01-21T10:49:49.107Z,91.64
2019-01-21T10:50:49.100Z,91.42
2019-01-21T10:51:49.101Z,91.96
2019-01-21T10:52:49.076Z,92.69
2019-01-21T10:53:49.087Z,92.38
2019-01-21T10:54:49.059Z,93.01
2019-01-21T10:55:49.047Z,93.53
2019-01-21T10:56:49.035Z,93.43
2019-01-21T10:57:49.038Z,93.64
2019-01-21T10:58:49.015Z,93.74
2019-01-21T10:59:49.026Z,93.85
2019-01-21T11:00:48.991Z,93.49
2019-01-21T11:01:48.979Z,94.23
2019-01-21T11:02:48.976Z,93.18
2019-01-21T11:03:48.974Z,92.48
2019-01-21T11:04:48.962Z,91.70
2019-01-21T11:05:48.958Z,91.39
2019-01-21T11:06:48.936Z,91.49
2019-01-21T11:07:48.922Z,91.39
2019-01-21T11:08:48.937Z,91.17
2019-01-21T11:09:48.905Z,91.49
2019-01-21T11:10:48.958Z,91.28
2019-01-21T11:11:53.919Z,91.55
2019-01-21T11:12:49.871Z,91.35
2019-01-21T11:13:48.887Z,91.35
2019-01-21T11:14:48.894Z,91.35
2019-01-21T11:15:48.843Z,91.03
2019-01-21T11:16:48.856Z,91.24
2019-01-21T11:17:48.813Z,90.92
2019-01-21T11:18:48.808Z,89.98
2019-01-21T11:19:48.798Z,89.45
2019-01-21T11:20:48.803Z,90.08
2019-01-21T11:21:48.803Z,89.98
2019-01-21T11:22:48.788Z,89.87
2019-01-21T11:23:48.758Z,89.66
2019-01-21T11:24:48.743Z,89.62
2019-01-21T11:25:48.773Z,88.99
2019-01-21T11:26:48.730Z,89.62
2019-01-21T11:27:48.737Z,89.51
2019-01-21T11:28:48.709Z,89.30
2019-01-21T11:29:48.695Z,88.99
2019-01-21T11:30:48.700Z,87.83
2019-01-21T11:31:48.714Z,88.74
2019-01-21T11:32:48.679Z,88.84
2019-01-21T11:33:48.685Z,88.10
2019-01-21T11:34:48.654Z,88.42
2019-01-21T11:35:48.645Z,88.28
2019-01-21T11:36:48.618Z,88.21
2019-01-21T11:37:48.616Z,88.17
2019-01-21T11:38:48.619Z,87.65
2019-01-21T11:39:48.617Z,87.27
2019-01-21T11:40:48.586Z,87.23
2019-01-21T11:41:48.579Z,87.05
2019-01-21T11:42:48.594Z,87.27
2019-01-21T11:43:48.555Z,87.75
2019-01-21T11:44:48.569Z,87.68
2019-01-21T11:45:48.528Z,87.44
2019-01-21T11:46:48.521Z,87.54
2019-01-21T11:47:48.505Z,88.17
2019-01-21T11:48:48.508Z,87.58
2019-01-21T11:49:48.490Z,87.54
2019-01-21T11:50:48.508Z,87.68
2019-01-21T11:51:48.467Z,87.85
2019-01-21T11:52:48.459Z,87.75
2019-01-21T11:53:48.449Z,87.33
2019-01-21T11:54:48.445Z,87.12
2019-01-21T11:55:48.439Z,87.12
2019-01-21T11:56:48.441Z,87.02
2019-01-21T11:57:48.406Z,87.44
2019-01-21T11:58:48.407Z,87.82
2019-01-21T11:59:48.384Z,87.50
2019-01-21T12:00:48.377Z,87.19
2019-01-21T12:01:48.443Z,86.45
2019-01-21T12:02:48.366Z,87.19
2019-01-21T12:03:48.358Z,87.19
2019-01-21T12:04:48.341Z,86.03
2019-01-21T12:05:48.326Z,86.66
2019-01-21T12:06:48.323Z,85.19
2019-01-21T12:07:48.328Z,85.82
2019-01-21T12:08:48.310Z,86.98
2019-01-21T12:09:48.283Z,87.19
2019-01-21T12:10:48.280Z,86.55
2019-01-21T12:11:48.323Z,85.78
2019-01-21T12:12:48.258Z,86.03
2019-01-21T12:13:48.241Z,85.82
2019-01-21T12:14:48.228Z,85.82
2019-01-21T12:15:48.235Z,85.61
2019-01-21T12:16:48.216Z,85.99
2019-01-21T12:17:48.244Z,85.93
2019-01-21T12:18:48.209Z,85.82
2019-01-21T12:19:48.191Z,85.72
2019-01-21T12:20:48.172Z,85.82
2019-01-21T12:21:48.163Z,86.03
2019-01-21T12:22:48.154Z,86.20
2019-01-21T12:23:48.189Z,87.15
2019-01-21T12:24:48.134Z,86.72
2019-01-21T12:25:48.130Z,85.89
2019-01-21T12:26:48.129Z,85.89
2019-01-21T12:27:48.180Z,85.68
2019-01-21T12:28:48.105Z,86.10
2019-01-21T12:29:48.084Z,85.89
2019-01-21T12:30:48.070Z,85.89
2019-01-21T12:31:48.058Z,86.90
2019-01-21T12:32:48.047Z,85.47
2019-01-21T12:33:48.051Z,85.15
2019-01-21T12:34:48.044Z,85.57
2019-01-21T12:35:48.024Z,85.57
2019-01-21T12:36:48.002Z,84.42
2019-01-21T12:37:48.003Z,84.38
2019-01-21T12:38:48.010Z,85.05
2019-01-21T12:39:47.976Z,84.80
2019-01-21T12:40:47.974Z,85.11
2019-01-21T12:41:47.967Z,84.59
2019-01-21T12:42:47.954Z,84.91
2019-01-21T12:43:47.940Z,84.59
2019-01-21T12:44:47.957Z,85.11
2019-01-21T12:45:47.911Z,84.80
2019-01-21T12:46:47.909Z,84.17
2019-01-21T12:47:47.899Z,85.32
2019-01-21T12:48:47.885Z,84.69
2019-01-21T12:49:47.882Z,85.22
2019-01-21T12:50:47.899Z,85.32
2019-01-21T12:51:47.883Z,84.38
2019-01-21T12:52:47.866Z,84.55
2019-01-21T12:53:47.868Z,84.17